createdAt,value
2022-10-18T00:01:02.320Z,30.42
2022-10-18T00:03:29.839Z,32.58
2022-10-18T00:05:57.120Z,31.83
2022-10-18T00:08:24.490Z,33.70
2022-10-18T00:10:51.775Z,34.22
2022-10-18T00:13:19.064Z,33.70
2022-10-18T00:15:50.523Z,34.28
2022-10-18T00:18:17.822Z,34.42
2022-10-18T00:20:45.084Z,35.92
2022-10-18T00:23:12.388Z,36.00
2022-10-18T00:25:39.622Z,36.10
2022-10-18T00:28:06.820Z,34.17
2022-10-18T00:30:34.047Z,34.60
2022-10-18T00:33:01.279Z,35.00
2022-10-18T00:35:28.485Z,35.38
2022-10-18T00:37:55.767Z,33.42
2022-10-18T00:40:22.982Z,33.28
2022-10-18T00:42:50.172Z,33.53
2022-10-18T00:45:22.345Z,33.90
2022-10-18T00:47:53.098Z,31.08
2022-10-18T00:50:21.789Z,32.03
2022-10-18T00:52:53.216Z,30.20
2022-10-18T00:55:20.826Z,29.60
2022-10-18T00:57:49.568Z,31.30
2022-10-18T01:00:17.131Z,29.92
2022-10-18T01:02:45.387Z,28.80
2022-10-18T01:05:14.059Z,30.38
2022-10-18T01:08:04.324Z,28.88
2022-10-18T01:10:35.775Z,29.83
2022-10-18T01:13:20.930Z,27.85
2022-10-18T01:15:53.465Z,27.92
2022-10-18T01:18:42.172Z,29.23
2022-10-18T01:21:15.268Z,29.67
2022-10-18T01:23:45.914Z,30.60
2022-10-18T01:26:18.843Z,29.77
2022-10-18T01:29:06.386Z,30.65
2022-10-18T01:32:02.827Z,30.98
2022-10-18T01:34:33.715Z,29.55
2022-10-18T01:37:02.103Z,30.60
2022-10-18T01:39:32.209Z,30.40
2022-10-18T01:42:00.544Z,28.73
2022-10-18T01:44:30.394Z,30.85
2022-10-18T01:46:57.877Z,29.42
2022-10-18T01:49:25.430Z,30.73
2022-10-18T01:51:52.697Z,28.75
2022-10-18T01:54:26.423Z,30.40
2022-10-18T01:57:02.867Z,29.30
2022-10-18T01:59:38.883Z,30.08
2022-10-18T02:02:24.334Z,28.85
2022-10-18T02:04:54.799Z,29.45
2022-10-18T02:07:51.879Z,29.40
2022-10-18T02:10:27.465Z,30.48
2022-10-18T02:12:55.536Z,33.08
2022-10-18T02:15:24.627Z,33.75
2022-10-18T02:17:52.811Z,33.33
2022-10-18T02:20:21.623Z,33.55
2022-10-18T02:22:51.360Z,35.78
2022-10-18T02:25:21.274Z,35.70
2022-10-18T02:27:48.576Z,35.45
2022-10-18T02:30:16.022Z,37.20
2022-10-18T02:32:50.329Z,35.75
2022-10-18T02:35:21.322Z,33.25
2022-10-18T02:37:49.883Z,35.35
2022-10-18T02:40:17.700Z,36.45
2022-10-18T02:42:50.512Z,35.33
2022-10-18T02:45:18.116Z,33.13
2022-10-18T02:47:45.373Z,36.85
2022-10-18T02:50:12.968Z,35.95
2022-10-18T02:52:40.304Z,34.65
2022-10-18T02:55:08.056Z,34.97
2022-10-18T02:57:35.343Z,36.38
2022-10-18T03:00:02.687Z,36.75
2022-10-18T03:02:29.944Z,40.80
2022-10-18T03:04:57.237Z,38.55
2022-10-18T03:07:24.535Z,36.17
2022-10-18T03:09:51.840Z,34.83
2022-10-18T03:12:19.051Z,37.20
2022-10-18T03:14:46.272Z,35.75
2022-10-18T03:17:13.656Z,35.25
2022-10-18T03:19:40.939Z,36.20
2022-10-18T03:22:08.264Z,35.42
2022-10-18T03:24:35.480Z,34.22
2022-10-18T03:27:03.063Z,38.13
2022-10-18T03:29:30.283Z,34.72
2022-10-18T03:31:57.491Z,35.53
2022-10-18T03:34:24.726Z,33.70
2022-10-18T03:36:51.952Z,33.78
2022-10-18T03:39:19.184Z,33.20
2022-10-18T03:41:46.444Z,33.67
2022-10-18T03:44:13.652Z,34.60
2022-10-18T03:46:40.920Z,33.28
2022-10-18T03:49:08.142Z,33.88
2022-10-18T03:51:35.412Z,35.58
2022-10-18T03:54:02.612Z,32.90
2022-10-18T03:56:29.894Z,32.03
2022-10-18T03:58:57.201Z,33.42
2022-10-18T04:01:24.640Z,32.35
2022-10-18T04:03:51.949Z,32.40
2022-10-18T04:06:19.165Z,33.28
2022-10-18T04:08:46.421Z,33.40
2022-10-18T04:11:13.680Z,34.55
2022-10-18T04:13:40.952Z,36.40
2022-10-18T04:16:08.227Z,34.47
2022-10-18T04:18:35.445Z,36.08
2022-10-18T04:21:02.703Z,36.22
2022-10-18T04:23:31.780Z,36.75
2022-10-18T04:26:01.092Z,35.78
2022-10-18T04:28:28.357Z,35.03
2022-10-18T04:30:55.641Z,35.08
2022-10-18T04:33:23.544Z,34.25
2022-10-18T04:35:52.274Z,34.40
2022-10-18T04:38:19.890Z,36.67
2022-10-18T04:40:47.151Z,33.58
2022-10-18T04:43:14.371Z,34.75
2022-10-18T04:45:41.913Z,34.65
2022-10-18T04:48:09.237Z,32.50
2022-10-18T04:50:36.483Z,31.10
2022-10-18T04:53:03.779Z,31.00
2022-10-18T04:55:30.977Z,30.60
2022-10-18T04:57:58.211Z,32.55
2022-10-18T05:00:25.470Z,32.33
2022-10-18T05:02:56.964Z,35.97
2022-10-18T05:05:27.045Z,32.47
2022-10-18T05:08:00.464Z,31.40
2022-10-18T05:10:27.748Z,31.80
2022-10-18T05:12:54.971Z,30.73
2022-10-18T05:15:22.212Z,30.45
2022-10-18T05:17:49.507Z,31.95
2022-10-18T05:20:16.839Z,32.55
2022-10-18T05:22:44.370Z,31.55
2022-10-18T05:25:11.684Z,31.42
2022-10-18T05:27:39.049Z,29.33
2022-10-18T05:30:06.531Z,30.00
2022-10-18T05:32:34.054Z,30.10
2022-10-18T05:35:01.498Z,31.45
2022-10-18T05:37:28.866Z,28.17
2022-10-18T05:39:56.100Z,29.83
2022-10-18T05:42:23.340Z,29.73
2022-10-18T05:44:50.586Z,29.77
2022-10-18T05:47:17.794Z,30.05
2022-10-18T05:49:45.059Z,28.40
2022-10-18T05:52:12.300Z,28.73
2022-10-18T05:54:39.536Z,26.02
2022-10-18T05:57:06.785Z,25.67
2022-10-18T05:59:34.052Z,26.08
2022-10-18T06:02:01.317Z,24.88
2022-10-18T06:04:28.538Z,24.00
2022-10-18T06:06:56.215Z,23.13
2022-10-18T06:09:23.478Z,23.98
2022-10-18T06:11:50.695Z,23.63
2022-10-18T06:14:18.016Z,24.42
2022-10-18T06:16:45.265Z,24.08
2022-10-18T06:19:12.520Z,26.17
2022-10-18T06:21:39.761Z,24.65
2022-10-18T06:24:07.193Z,25.45
2022-10-18T06:26:34.432Z,24.92
2022-10-18T06:29:01.709Z,24.40
2022-10-18T06:31:29.002Z,25.05
2022-10-18T06:33:58.094Z,23.90
2022-10-18T06:36:25.767Z,26.20
2022-10-18T06:38:53.013Z,24.38
2022-10-18T06:41:20.527Z,24.05
2022-10-18T06:43:51.288Z,25.20
2022-10-18T06:46:18.599Z,24.07
2022-10-18T06:48:46.203Z,25.25
2022-10-18T06:51:13.599Z,24.13
2022-10-18T06:53:44.345Z,24.98
2022-10-18T06:56:26.192Z,23.38
2022-10-18T06:58:53.431Z,21.98
2022-10-18T07:01:20.927Z,23.25
2022-10-18T07:03:49.015Z,23.10
2022-10-18T07:06:18.121Z,28.10
2022-10-18T07:08:45.610Z,33.35
2022-10-18T07:11:17.371Z,32.70
2022-10-18T07:13:44.758Z,23.58
2022-10-18T07:16:15.803Z,22.20
2022-10-18T07:18:46.729Z,22.13
2022-10-18T07:21:16.192Z,22.58
2022-10-18T07:23:46.187Z,21.67
2022-10-18T07:26:19.383Z,22.77
2022-10-18T07:28:47.827Z,22.73
2022-10-18T07:31:15.075Z,21.80
2022-10-18T07:33:45.221Z,20.35
2022-10-18T07:36:13.221Z,20.55
2022-10-18T07:38:41.164Z,21.30
2022-10-18T07:41:08.933Z,18.98
2022-10-18T07:43:36.684Z,20.08
2022-10-18T07:46:06.106Z,190.35
2022-10-18T07:48:33.367Z,39.97
2022-10-18T07:51:01.750Z,21.73
2022-10-18T07:53:29.871Z,19.67
2022-10-18T07:56:02.420Z,20.23
2022-10-18T07:58:32.720Z,20.75
2022-10-18T08:01:06.736Z,20.08
2022-10-18T08:03:34.195Z,20.35
2022-10-18T08:06:01.439Z,19.15
2022-10-18T08:08:28.995Z,20.25
2022-10-18T08:10:56.436Z,19.35
2022-10-18T08:13:23.672Z,18.98
2022-10-18T08:15:50.856Z,16.23
2022-10-18T08:18:18.105Z,16.08
2022-10-18T08:20:45.954Z,14.65
2022-10-18T08:23:13.558Z,12.38
2022-10-18T08:25:40.871Z,11.27
2022-10-18T08:28:08.482Z,9.82
2022-10-18T08:30:36.470Z,15.55
2022-10-18T08:33:04.323Z,10.95
2022-10-18T08:35:31.953Z,8.27
2022-10-18T08:37:59.568Z,6.57
2022-10-18T08:40:27.656Z,5.78
2022-10-18T08:43:01.132Z,6.35
2022-10-18T08:45:41.287Z,5.07
2022-10-18T08:48:11.043Z,5.05
2022-10-18T08:50:38.815Z,5.35
2022-10-18T08:53:06.050Z,3.53
2022-10-18T08:55:36.636Z,3.45
2022-10-18T08:58:05.941Z,4.47
2022-10-18T09:00:36.642Z,3.40
2022-10-18T09:03:16.316Z,3.35
2022-10-18T09:05:46.656Z,2.88
2022-10-18T09:08:34.261Z,2.97
2022-10-18T09:11:04.189Z,3.10
2022-10-18T09:13:51.203Z,3.50
2022-10-18T09:16:22.780Z,3.28
2022-10-18T09:18:52.903Z,3.60
2022-10-18T09:21:20.629Z,2.80
2022-10-18T09:23:49.463Z,2.78
2022-10-18T09:26:21.155Z,2.40
2022-10-18T09:28:48.404Z,2.30
2022-10-18T09:31:41.554Z,2.28
2022-10-18T09:34:12.063Z,1.98
2022-10-18T09:36:39.709Z,2.38
2022-10-18T09:39:13.246Z,2.45
2022-10-18T09:41:43.307Z,2.35
2022-10-18T09:44:14.265Z,2.55
2022-10-18T09:46:43.402Z,2.25
2022-10-18T09:49:29.283Z,3.13
2022-10-18T09:51:58.084Z,2.15
2022-10-18T09:54:28.907Z,2.22
2022-10-18T09:56:58.702Z,2.75
2022-10-18T09:59:38.364Z,1.92
2022-10-18T10:02:06.163Z,2.35
2022-10-18T10:04:33.400Z,2.33
2022-10-18T10:07:01.693Z,2.38
2022-10-18T10:09:37.311Z,2.85
2022-10-18T10:12:04.720Z,2.65
2022-10-18T10:14:43.637Z,1.88
2022-10-18T10:17:22.476Z,2.67
2022-10-18T10:20:03.528Z,1.80
2022-10-18T10:22:36.711Z,2.00
2022-10-18T10:25:04.931Z,2.13
2022-10-18T10:27:32.485Z,29.75
2022-10-18T10:30:04.343Z,22.70
2022-10-18T10:32:45.301Z,2.70
2022-10-18T10:35:54.381Z,2.42
2022-10-18T10:38:25.769Z,2.28
2022-10-18T10:40:53.403Z,2.00
2022-10-18T10:43:40.312Z,2.42
2022-10-18T10:46:09.918Z,1.98
2022-10-18T10:49:08.473Z,2.17
2022-10-18T10:51:43.628Z,2.33
2022-10-18T10:54:15.374Z,2.22
2022-10-18T10:57:11.251Z,2.03
2022-10-18T10:59:45.734Z,2.42
2022-10-18T11:02:17.580Z,2.47
2022-10-18T11:04:48.527Z,2.03
2022-10-18T11:07:35.677Z,2.75
2022-10-18T11:10:12.423Z,2.78
2022-10-18T11:12:40.632Z,1.95
2022-10-18T11:15:12.180Z,2.35
2022-10-18T11:20:21.553Z,1.83
2022-10-18T11:22:58.175Z,1.95
2022-10-18T11:25:28.747Z,1.58
2022-10-18T11:28:02.931Z,2.63
2022-10-18T11:30:36.279Z,2.03
2022-10-18T11:33:18.605Z,2.20
2022-10-18T11:36:06.728Z,2.03
2022-10-18T11:38:36.774Z,2.08
2022-10-18T11:41:12.365Z,2.72
2022-10-18T11:44:02.740Z,2.47
2022-10-18T11:47:06.099Z,2.78
2022-10-18T11:49:51.668Z,46.10
2022-10-18T11:52:24.815Z,11.18
2022-10-18T11:54:54.887Z,2.38
2022-10-18T11:57:22.059Z,3.78
2022-10-18T11:59:52.291Z,3.42
2022-10-18T12:02:45.038Z,4.13
2022-10-18T12:05:23.058Z,3.47
2022-10-18T12:08:03.399Z,2.78
2022-10-18T12:10:45.691Z,1.98
2022-10-18T12:13:23.001Z,14.32
2022-10-18T12:15:50.950Z,56.72
2022-10-18T12:18:19.820Z,4.43
2022-10-18T12:20:52.061Z,2.78
2022-10-18T12:23:36.566Z,2.35
2022-10-18T12:26:05.513Z,2.78
2022-10-18T12:28:35.615Z,2.45
2022-10-18T12:31:21.661Z,2.60
2022-10-18T12:33:51.233Z,2.20
2022-10-18T12:36:30.971Z,2.38
2022-10-18T12:39:01.147Z,2.08
2022-10-18T12:41:29.838Z,2.08
2022-10-18T12:44:03.672Z,2.00
2022-10-18T12:46:50.613Z,2.13
2022-10-18T12:49:40.168Z,1.92
2022-10-18T12:52:26.350Z,1.85
2022-10-18T12:55:16.936Z,2.13
2022-10-18T12:57:54.226Z,1.90
2022-10-18T13:00:30.419Z,1.77
2022-10-18T13:03:12.759Z,1.55
2022-10-18T13:05:52.842Z,2.13
2022-10-18T13:08:30.428Z,1.88
2022-10-18T13:11:12.898Z,2.25
2022-10-18T13:13:59.115Z,2.30
2022-10-18T13:16:26.361Z,2.45
2022-10-18T13:19:03.668Z,1.60
2022-10-18T13:21:35.824Z,2.08
2022-10-18T13:24:03.001Z,2.03
2022-10-18T13:26:45.194Z,1.65
2022-10-18T13:29:18.667Z,1.90
2022-10-18T13:31:48.386Z,1.98
2022-10-18T13:34:24.525Z,1.80
2022-10-18T13:37:00.940Z,2.05
2022-10-18T13:39:29.130Z,2.40
2022-10-18T13:42:00.658Z,1.70
2022-10-18T13:46:59.237Z,2.15
2022-10-18T13:49:41.933Z,2.90
2022-10-18T13:52:15.280Z,1.60
2022-10-18T13:54:42.483Z,1.90
2022-10-18T13:57:25.580Z,2.03
2022-10-18T13:59:52.754Z,1.90
2022-10-18T14:02:49.825Z,1.83
2022-10-18T14:05:24.994Z,1.85
2022-10-18T14:07:59.142Z,1.85
2022-10-18T14:11:01.276Z,10.63
2022-10-18T14:13:34.136Z,3.03
2022-10-18T14:16:14.961Z,1.42
2022-10-18T14:18:43.411Z,2.07
2022-10-18T14:21:16.813Z,2.75
2022-10-18T14:23:46.652Z,2.75
2022-10-18T14:26:15.313Z,2.25
2022-10-18T14:28:59.114Z,2.58
2022-10-18T14:31:26.638Z,1.80
2022-10-18T14:33:57.617Z,1.48
2022-10-18T14:39:00.618Z,2.20
2022-10-18T14:41:29.243Z,1.98
2022-10-18T14:44:14.902Z,2.20
2022-10-18T14:46:46.055Z,2.30
2022-10-18T14:49:13.849Z,16.70
2022-10-18T14:51:42.799Z,4.78
2022-10-18T14:56:48.230Z,1.85
2022-10-18T14:59:20.953Z,2.10
2022-10-18T15:01:57.200Z,1.80
2022-10-18T15:04:31.051Z,1.80
2022-10-18T15:06:58.787Z,1.85
2022-10-18T15:09:26.189Z,2.45
2022-10-18T15:11:55.258Z,2.35
2022-10-18T15:14:22.783Z,2.45
2022-10-18T15:16:51.469Z,1.75
2022-10-18T15:19:18.660Z,2.75
2022-10-18T15:22:19.707Z,2.83
2022-10-18T15:24:45.293Z,11.98
2022-10-18T15:27:15.664Z,29.40
2022-10-18T15:29:44.135Z,3.42
2022-10-18T15:32:20.639Z,2.25
2022-10-18T15:34:48.048Z,1.48
2022-10-18T15:37:20.080Z,2.10
2022-10-18T15:39:47.416Z,1.85
2022-10-18T15:42:33.511Z,1.30
2022-10-18T15:45:00.723Z,1.88
2022-10-18T15:47:27.919Z,1.60
2022-10-18T15:49:56.258Z,1.13
2022-10-18T15:52:40.055Z,1.75
2022-10-18T15:55:26.073Z,1.20
2022-10-18T15:57:53.264Z,1.50
2022-10-18T16:00:21.553Z,1.85
2022-10-18T16:02:48.813Z,1.30
2022-10-18T16:05:17.039Z,0.90
2022-10-18T16:07:44.348Z,1.65
2022-10-18T16:10:14.687Z,1.08
2022-10-18T16:12:41.997Z,1.50
2022-10-18T16:15:09.512Z,1.13
2022-10-18T16:17:36.821Z,1.58
2022-10-18T16:20:04.428Z,1.13
2022-10-18T16:22:34.746Z,1.13
2022-10-18T16:25:04.338Z,1.23
2022-10-18T16:27:31.545Z,1.13
2022-10-18T16:29:58.874Z,1.35
2022-10-18T16:32:26.074Z,1.13
2022-10-18T16:34:53.314Z,1.08
2022-10-18T16:37:20.576Z,0.85
2022-10-18T16:39:47.752Z,0.82
2022-10-18T16:42:14.995Z,1.50
2022-10-18T16:44:42.211Z,2.75
2022-10-18T16:47:12.134Z,24.50
2022-10-18T16:49:39.859Z,12.68
2022-10-18T16:52:07.114Z,1.73
2022-10-18T16:54:35.704Z,0.70
2022-10-18T16:57:02.993Z,1.05
2022-10-18T16:59:31.592Z,1.20
2022-10-18T17:02:01.582Z,1.50
2022-10-18T17:04:29.415Z,1.35
2022-10-18T17:06:58.831Z,1.77
2022-10-18T17:09:26.207Z,1.83
2022-10-18T17:11:54.395Z,1.48
2022-10-18T17:14:21.644Z,1.50
2022-10-18T17:16:53.094Z,1.35
2022-10-18T17:19:23.463Z,0.80
2022-10-18T17:21:50.667Z,0.90
2022-10-18T17:24:17.898Z,0.60
2022-10-18T17:26:45.143Z,0.68
2022-10-18T17:29:12.458Z,1.00
2022-10-18T17:31:39.758Z,0.60
2022-10-18T17:34:07.043Z,0.57
2022-10-18T17:36:34.270Z,0.68
2022-10-18T17:39:01.523Z,0.73
2022-10-18T17:41:28.810Z,0.82
2022-10-18T17:43:56.055Z,0.93
2022-10-18T17:46:23.756Z,0.90
2022-10-18T17:48:51.082Z,0.50
2022-10-18T17:51:18.738Z,0.52
2022-10-18T17:53:46.572Z,0.80
2022-10-18T17:56:14.303Z,0.68
2022-10-18T17:58:43.556Z,0.60
2022-10-18T18:01:10.815Z,0.65
2022-10-18T18:03:38.236Z,0.88
2022-10-18T18:06:21.912Z,0.80
2022-10-18T18:08:49.787Z,0.60
2022-10-18T18:11:17.940Z,0.60
2022-10-18T18:13:45.189Z,0.68
2022-10-18T18:16:12.439Z,0.93
2022-10-18T18:18:40.003Z,0.98
2022-10-18T18:21:07.244Z,1.02
2022-10-18T18:23:34.438Z,1.13
2022-10-18T18:26:01.685Z,0.82
2022-10-18T18:28:28.960Z,1.00
2022-10-18T18:30:56.209Z,15.57
2022-10-18T18:33:23.473Z,29.85
2022-10-18T18:35:57.492Z,2.65
2022-10-18T18:38:25.189Z,1.13
2022-10-18T18:41:03.207Z,1.15
2022-10-18T18:43:30.485Z,1.58
2022-10-18T18:45:58.058Z,1.25
2022-10-18T18:48:26.569Z,1.60
2022-10-18T18:50:53.869Z,1.42
2022-10-18T18:53:21.308Z,3.13
2022-10-18T18:55:50.699Z,1.40
2022-10-18T18:58:17.934Z,1.83
2022-10-18T19:00:45.536Z,1.40
2022-10-18T19:03:13.173Z,2.03
2022-10-18T19:05:40.433Z,1.48
2022-10-18T19:08:07.786Z,1.77
2022-10-18T19:10:35.048Z,1.92
2022-10-18T19:13:02.289Z,1.92
2022-10-18T19:15:29.518Z,1.15
2022-10-18T19:17:57.303Z,1.50
2022-10-18T19:20:24.597Z,5.30
2022-10-18T19:22:51.828Z,4.97
2022-10-18T19:25:21.154Z,4.50
2022-10-18T19:30:19.812Z,1.83
2022-10-18T19:32:47.039Z,1.20
2022-10-18T19:35:14.279Z,1.85
2022-10-18T19:37:41.523Z,1.92
2022-10-18T19:40:09.022Z,1.63
2022-10-18T19:42:37.381Z,1.95
2022-10-18T19:45:05.190Z,1.77
2022-10-18T19:47:32.518Z,3.13
2022-10-18T19:49:59.736Z,1.92
2022-10-18T19:52:28.408Z,2.53
2022-10-18T19:54:55.648Z,1.63
2022-10-18T19:57:22.867Z,1.75
2022-10-18T19:59:50.474Z,1.80
2022-10-18T20:02:17.686Z,1.10
2022-10-18T20:04:44.927Z,1.60
2022-10-18T20:07:12.305Z,1.40
2022-10-18T20:09:39.893Z,1.63
2022-10-18T20:12:07.143Z,1.17
2022-10-18T20:14:34.400Z,1.08
2022-10-18T20:17:01.632Z,1.08
2022-10-18T20:19:28.848Z,1.27
2022-10-18T20:21:57.700Z,1.40
2022-10-18T20:24:24.952Z,1.10
2022-10-18T20:29:20.781Z,0.95
2022-10-18T20:31:48.150Z,0.88
2022-10-18T20:34:15.394Z,0.88
2022-10-18T20:36:43.038Z,0.93
2022-10-18T20:39:10.503Z,1.10
2022-10-18T20:41:38.810Z,1.00
2022-10-18T20:44:10.766Z,1.25
2022-10-18T20:46:38.807Z,1.52
2022-10-18T20:49:07.268Z,1.10
2022-10-18T20:51:35.042Z,43.95
2022-10-18T20:56:34.354Z,3.20
2022-10-18T20:59:01.922Z,1.25
2022-10-18T21:01:30.694Z,0.88
2022-10-18T21:03:58.739Z,0.70
2022-10-18T21:06:27.143Z,1.10
2022-10-18T21:08:55.155Z,1.58
2022-10-18T21:11:22.783Z,1.38
2022-10-18T21:13:59.561Z,1.25
2022-10-18T21:16:27.219Z,1.40
2022-10-18T21:18:54.896Z,1.38
2022-10-18T21:21:25.440Z,1.70
2022-10-18T21:23:53.062Z,1.33
2022-10-18T21:26:21.814Z,1.10
2022-10-18T21:28:50.926Z,38.70
2022-10-18T21:31:19.668Z,28.90
2022-10-18T21:33:47.423Z,3.72
2022-10-18T21:36:15.688Z,0.80
2022-10-18T21:38:45.602Z,0.90
2022-10-18T21:41:13.515Z,1.10
2022-10-18T21:43:41.895Z,0.57
2022-10-18T21:46:10.251Z,0.73
2022-10-18T21:48:37.945Z,0.70
2022-10-18T21:51:08.635Z,1.33
2022-10-18T21:53:35.907Z,1.13
2022-10-18T21:56:07.047Z,1.05
2022-10-18T21:58:35.512Z,0.98
2022-10-18T22:01:03.024Z,0.70
2022-10-18T22:03:30.376Z,1.08
2022-10-18T22:06:08.973Z,1.00
2022-10-18T22:08:36.556Z,1.00
2022-10-18T22:11:04.039Z,0.73
2022-10-18T22:13:31.524Z,0.98
2022-10-18T22:16:02.282Z,1.25
2022-10-18T22:18:30.434Z,1.07
2022-10-18T22:20:58.855Z,0.90
2022-10-18T22:23:26.212Z,1.23
2022-10-18T22:25:53.451Z,1.50
2022-10-18T22:28:20.683Z,1.42
2022-10-18T22:30:47.930Z,0.98
2022-10-18T22:33:15.146Z,1.00
2022-10-18T22:35:42.374Z,1.05
2022-10-18T22:38:09.607Z,1.25
2022-10-18T22:40:36.798Z,1.10
2022-10-18T22:43:04.044Z,1.10
2022-10-18T22:45:31.292Z,1.08
2022-10-18T22:47:58.720Z,1.08
2022-10-18T22:50:25.929Z,1.48
2022-10-18T22:52:54.609Z,1.65
2022-10-18T22:55:21.970Z,1.48
2022-10-18T22:57:49.233Z,1.10
2022-10-18T23:00:16.452Z,1.05
2022-10-18T23:02:43.697Z,1.50
2022-10-18T23:05:10.904Z,1.42
2022-10-18T23:07:38.155Z,1.50
2022-10-18T23:10:05.595Z,0.93
2022-10-18T23:12:32.990Z,1.75
2022-10-18T23:15:00.496Z,1.48
2022-10-18T23:17:27.689Z,1.42
2022-10-18T23:19:54.923Z,1.55
2022-10-18T23:22:22.234Z,1.80
2022-10-18T23:24:49.456Z,1.50
2022-10-18T23:27:16.679Z,1.35
2022-10-18T23:29:43.988Z,1.30
2022-10-18T23:32:11.188Z,1.30
2022-10-18T23:34:38.374Z,1.50
2022-10-18T23:37:05.639Z,1.15
2022-10-18T23:39:32.901Z,1.50
2022-10-18T23:42:00.094Z,1.55
2022-10-18T23:44:27.314Z,0.88
2022-10-18T23:46:54.503Z,0.80
2022-10-18T23:49:21.744Z,1.05
2022-10-18T23:51:48.943Z,1.08
2022-10-18T23:54:16.202Z,1.10
2022-10-18T23:56:43.398Z,1.23
2022-10-18T23:59:10.635Z,1.08
